Kartal, Turkey
Current Conditions -  °F | °C
As of 12:20 PM on Sunday 26 Oct 2014 (Local Time) from LTFJ Reporting Station
Broken Clouds Broken Clouds  
Wind Chill: 61°   Ceiling: 2500
Heat Index: 61°   Visibility: 6mi
Dew Point: 52°   Wind: 8mph
Humidity: 72%   Direction: 260°W
Pressure: 30.03"   Gusts: NA
Location:  40.9°N, 29.19°E
Report Text: LTFJ 260920Z 26007KT 230V290 9999 BKN025 BKN100 16/11 Q1017 NOSIG
Loading
Personal Weather Stations






























Interactive Weather Map
Tropical Storm Tracking
New forecast layout! Learn more

10-Day Weather Forecast

Advertisements
Track Severe Weather on mobile